createdAt,value
2022-10-10T00:03:00.546Z,7.42
2022-10-10T00:08:02.799Z,7.67
2022-10-10T00:13:06.322Z,7.36
2022-10-10T00:18:09.514Z,7.59
2022-10-10T00:23:11.779Z,7.24
2022-10-10T00:28:14.301Z,7.54
2022-10-10T00:33:17.117Z,7.46
2022-10-10T00:38:19.356Z,7.08
2022-10-10T00:43:23.453Z,6.80
2022-10-10T00:48:30.350Z,7.27
2022-10-10T00:53:38.643Z,7.31
2022-10-10T00:58:45.519Z,7.29
2022-10-10T01:03:47.891Z,7.12
2022-10-10T01:08:50.357Z,7.16
2022-10-10T01:14:03.110Z,7.07
2022-10-10T01:19:32.818Z,7.37
2022-10-10T01:25:00.397Z,7.36
2022-10-10T01:30:09.089Z,7.21
2022-10-10T01:35:33.558Z,7.45
2022-10-10T01:40:42.445Z,6.98
2022-10-10T01:45:51.081Z,6.78
2022-10-10T01:51:00.563Z,7.48
2022-10-10T01:56:23.715Z,6.87
2022-10-10T02:01:57.110Z,7.14
2022-10-10T02:07:08.952Z,6.99
2022-10-10T02:12:14.232Z,7.21
2022-10-10T02:17:18.219Z,7.59
2022-10-10T02:22:23.274Z,7.36
2022-10-10T02:27:45.117Z,7.66
2022-10-10T02:32:52.642Z,7.41
2022-10-10T02:37:59.710Z,7.71
2022-10-10T02:43:05.504Z,7.60
2022-10-10T02:48:08.102Z,7.77
2022-10-10T02:53:10.457Z,7.36
2022-10-10T02:58:13.583Z,7.21
2022-10-10T03:03:15.941Z,7.01
2022-10-10T03:08:18.180Z,7.32
2022-10-10T03:13:20.389Z,7.11
2022-10-10T03:18:23.137Z,7.15
2022-10-10T03:23:26.023Z,7.62
2022-10-10T03:28:28.395Z,7.43
2022-10-10T03:33:30.855Z,7.55
2022-10-10T03:38:33.302Z,7.27
2022-10-10T03:43:35.793Z,7.57
2022-10-10T03:48:38.071Z,7.41
2022-10-10T03:53:40.473Z,7.72
2022-10-10T03:58:42.803Z,7.32
2022-10-10T04:03:49.872Z,7.17
2022-10-10T04:08:54.583Z,7.20
2022-10-10T04:13:56.857Z,7.64
2022-10-10T04:18:59.183Z,7.67
2022-10-10T04:24:01.571Z,7.41
2022-10-10T04:29:04.240Z,7.38
2022-10-10T04:34:06.589Z,7.42
2022-10-10T04:39:09.641Z,7.50
2022-10-10T04:44:13.167Z,7.86
2022-10-10T04:49:15.880Z,7.75
2022-10-10T04:54:18.219Z,8.03
2022-10-10T04:59:20.378Z,8.03
2022-10-10T05:04:22.981Z,8.40
2022-10-10T05:09:25.219Z,8.76
2022-10-10T05:14:27.479Z,8.58
2022-10-10T05:19:29.923Z,9.23
2022-10-10T05:24:32.289Z,9.41
2022-10-10T05:29:37.375Z,9.39
2022-10-10T05:34:43.318Z,9.20
2022-10-10T05:39:45.994Z,9.13
2022-10-10T05:44:48.271Z,9.32
2022-10-10T05:49:50.677Z,9.29
2022-10-10T05:54:53.083Z,9.65
2022-10-10T05:59:55.662Z,10.08
2022-10-10T06:04:57.843Z,10.49
2022-10-10T06:09:59.982Z,10.45
2022-10-10T06:15:02.472Z,10.60
2022-10-10T06:20:05.329Z,11.71
2022-10-10T06:25:23.963Z,17.78
2022-10-10T06:30:30.385Z,23.14
2022-10-10T06:35:32.529Z,25.39
2022-10-10T06:40:36.857Z,24.86
2022-10-10T06:45:47.738Z,25.76
2022-10-10T06:51:05.659Z,27.17
2022-10-10T06:56:08.122Z,25.59
2022-10-10T07:01:11.138Z,23.98
2022-10-10T07:06:14.213Z,24.85
2022-10-10T07:11:16.618Z,24.75
2022-10-10T07:16:19.085Z,24.94
2022-10-10T07:21:21.220Z,24.61
2022-10-10T07:26:27.209Z,25.07
2022-10-10T07:31:29.489Z,25.89
2022-10-10T07:36:31.575Z,25.49
2022-10-10T07:41:33.716Z,25.67
2022-10-10T07:46:36.015Z,26.42
2022-10-10T07:51:39.680Z,25.94
2022-10-10T07:56:41.732Z,25.84
2022-10-10T08:01:43.838Z,26.45
2022-10-10T08:06:46.439Z,26.07
2022-10-10T08:11:48.581Z,26.55
2022-10-10T08:16:50.839Z,26.22
2022-10-10T08:21:52.923Z,26.71
2022-10-10T08:26:55.166Z,26.63
2022-10-10T08:31:57.303Z,25.50
2022-10-10T08:36:59.412Z,26.35
2022-10-10T08:42:02.937Z,27.17
2022-10-10T08:47:08.060Z,27.13
2022-10-10T08:52:38.558Z,27.90
2022-10-10T08:57:55.513Z,27.30
2022-10-10T09:03:00.542Z,25.91
2022-10-10T09:08:19.261Z,25.52
2022-10-10T09:13:45.956Z,25.05
2022-10-10T09:19:17.472Z,24.22
2022-10-10T09:24:27.987Z,24.34
2022-10-10T09:29:44.816Z,23.65
2022-10-10T09:35:01.797Z,23.61
2022-10-10T09:40:18.303Z,23.62
2022-10-10T09:45:28.865Z,23.68
2022-10-10T09:50:31.066Z,23.22
2022-10-10T09:55:40.705Z,23.29
2022-10-10T10:00:43.058Z,22.90
2022-10-10T10:06:03.597Z,22.84
2022-10-10T10:11:06.521Z,23.27
2022-10-10T10:16:15.314Z,23.71
2022-10-10T10:21:24.803Z,24.03
2022-10-10T10:26:42.530Z,23.50
2022-10-10T10:32:18.545Z,23.70
2022-10-10T10:37:48.840Z,24.45
2022-10-10T10:43:05.873Z,24.55
2022-10-10T10:48:26.979Z,24.19
2022-10-10T10:54:11.255Z,23.47
2022-10-10T10:59:41.692Z,24.00
2022-10-10T11:05:21.947Z,23.68
2022-10-10T11:10:37.847Z,23.99
2022-10-10T11:21:21.658Z,23.27
2022-10-10T11:26:40.022Z,23.37
2022-10-10T11:31:56.214Z,23.94
2022-10-10T11:37:06.824Z,22.02
2022-10-10T11:42:22.483Z,22.11
2022-10-10T11:47:58.819Z,22.32
2022-10-10T11:53:22.832Z,21.88
2022-10-10T11:58:41.837Z,21.88
2022-10-10T12:03:47.396Z,21.78
2022-10-10T12:09:05.536Z,22.28
2022-10-10T12:14:16.023Z,22.30
2022-10-10T12:19:21.067Z,22.32
2022-10-10T12:24:26.301Z,22.75
2022-10-10T12:29:51.067Z,22.97
2022-10-10T12:34:53.573Z,23.00
2022-10-10T12:40:08.442Z,23.33
2022-10-10T12:45:29.356Z,23.34
2022-10-10T12:50:43.591Z,23.00
2022-10-10T12:55:52.813Z,22.29
2022-10-10T13:01:01.576Z,22.24
2022-10-10T13:06:18.314Z,21.90
2022-10-10T13:11:20.940Z,21.25
2022-10-10T13:16:33.469Z,21.46
2022-10-10T13:21:38.061Z,21.84
2022-10-10T13:26:46.340Z,21.27
2022-10-10T13:31:49.635Z,21.25
2022-10-10T13:36:56.073Z,21.49
2022-10-10T13:41:59.531Z,21.79
2022-10-10T13:47:40.072Z,21.28
2022-10-10T13:52:42.468Z,21.14
2022-10-10T13:57:44.902Z,21.00
2022-10-10T14:02:48.171Z,21.07
2022-10-10T14:07:51.916Z,21.27
2022-10-10T14:13:00.709Z,20.80
2022-10-10T14:18:10.913Z,20.61
2022-10-10T14:23:13.884Z,20.69
2022-10-10T14:28:20.795Z,20.81
2022-10-10T14:33:23.426Z,20.61
2022-10-10T14:38:26.674Z,20.53
2022-10-10T14:43:28.874Z,20.43
2022-10-10T14:48:31.167Z,20.26
2022-10-10T14:53:33.478Z,20.40
2022-10-10T14:58:35.684Z,20.32
2022-10-10T15:03:38.087Z,19.82
2022-10-10T15:08:40.484Z,19.94
2022-10-10T15:13:43.306Z,19.55
2022-10-10T15:18:54.010Z,18.97
2022-10-10T15:23:57.152Z,18.41
2022-10-10T15:29:00.626Z,18.55
2022-10-10T15:34:03.110Z,17.90
2022-10-10T15:39:05.358Z,17.86
2022-10-10T15:44:13.993Z,17.39
2022-10-10T15:49:16.479Z,17.30
2022-10-10T15:54:20.250Z,16.53
2022-10-10T15:59:22.380Z,16.24
2022-10-10T16:04:26.777Z,15.97
2022-10-10T16:09:29.280Z,15.56
2022-10-10T16:14:31.739Z,15.15
2022-10-10T16:19:34.162Z,14.86
2022-10-10T16:24:36.672Z,14.59
2022-10-10T16:29:39.512Z,14.10
2022-10-10T16:34:44.880Z,13.92
2022-10-10T16:39:47.228Z,14.03
2022-10-10T16:44:49.508Z,14.10
2022-10-10T16:49:51.826Z,13.44
2022-10-10T16:54:53.998Z,13.59
2022-10-10T16:59:56.830Z,13.24
2022-10-10T17:04:59.279Z,13.58
2022-10-10T17:10:01.483Z,13.33
2022-10-10T17:15:04.812Z,13.42
2022-10-10T17:20:07.884Z,13.08
2022-10-10T17:25:10.642Z,13.39
2022-10-10T17:30:13.957Z,13.20
2022-10-10T17:35:16.383Z,13.19
2022-10-10T17:40:18.654Z,12.99
2022-10-10T17:45:21.516Z,13.06
2022-10-10T17:50:27.195Z,13.00
2022-10-10T17:55:29.402Z,12.89
2022-10-10T18:00:31.727Z,12.95
2022-10-10T18:05:36.203Z,12.80
2022-10-10T18:10:44.605Z,12.60
2022-10-10T18:16:04.077Z,12.48
2022-10-10T18:21:10.487Z,12.20
2022-10-10T18:26:16.209Z,13.00
2022-10-10T18:31:20.977Z,12.90
2022-10-10T18:36:29.279Z,12.65
2022-10-10T18:41:34.563Z,12.50
2022-10-10T18:46:38.838Z,12.71
2022-10-10T18:51:43.580Z,12.30
2022-10-10T18:56:47.407Z,12.72
2022-10-10T19:01:50.788Z,12.61
2022-10-10T19:06:57.456Z,12.32
2022-10-10T19:12:00.106Z,12.06
2022-10-10T19:17:02.455Z,12.14
2022-10-10T19:22:04.618Z,11.97
2022-10-10T19:27:06.763Z,11.91
2022-10-10T19:32:09.067Z,11.67
2022-10-10T19:37:11.339Z,11.40
2022-10-10T19:42:13.586Z,12.09
2022-10-10T19:47:16.961Z,11.85
2022-10-10T19:52:19.349Z,11.72
2022-10-10T19:57:21.667Z,11.56
2022-10-10T20:02:23.994Z,11.34
2022-10-10T20:07:26.109Z,11.42
2022-10-10T20:12:28.236Z,10.89
2022-10-10T20:17:30.832Z,10.75
2022-10-10T20:22:34.756Z,10.96
2022-10-10T20:27:37.183Z,10.62
2022-10-10T20:32:39.447Z,10.80
2022-10-10T20:37:41.654Z,10.70
2022-10-10T20:42:44.072Z,10.49
2022-10-10T20:47:46.339Z,10.69
2022-10-10T20:52:48.836Z,10.23
2022-10-10T20:57:51.182Z,10.23
2022-10-10T21:02:56.265Z,10.60
2022-10-10T21:07:58.484Z,10.23
2022-10-10T21:13:00.590Z,9.95
2022-10-10T21:18:02.823Z,10.28
2022-10-10T21:23:05.730Z,9.84
2022-10-10T21:28:08.232Z,10.20
2022-10-10T21:33:10.548Z,9.72
2022-10-10T21:38:12.797Z,9.93
2022-10-10T21:43:15.827Z,10.12
2022-10-10T21:48:18.089Z,10.05
2022-10-10T21:53:20.457Z,10.06
2022-10-10T21:58:23.736Z,9.84
2022-10-10T22:03:25.939Z,10.10
2022-10-10T22:08:28.225Z,9.97
2022-10-10T22:13:30.905Z,10.16
2022-10-10T22:18:34.508Z,9.93
2022-10-10T22:23:36.763Z,9.83
2022-10-10T22:28:39.435Z,9.94
2022-10-10T22:33:42.141Z,10.05
2022-10-10T22:38:45.504Z,9.98
2022-10-10T22:43:48.245Z,10.14
2022-10-10T22:48:50.404Z,9.62
2022-10-10T22:53:52.631Z,10.05
2022-10-10T22:58:55.038Z,10.02
2022-10-10T23:04:00.717Z,9.94
2022-10-10T23:09:03.021Z,9.64
2022-10-10T23:14:05.703Z,9.68
2022-10-10T23:19:07.974Z,9.62
2022-10-10T23:24:10.153Z,9.72
2022-10-10T23:29:12.393Z,9.70
2022-10-10T23:34:14.573Z,9.53
2022-10-10T23:39:16.778Z,9.46
2022-10-10T23:44:18.893Z,9.47
2022-10-10T23:49:21.285Z,9.43
2022-10-10T23:54:23.518Z,9.69
2022-10-10T23:59:25.798Z,9.28
